sensor_id;sensor_type;location;lat;lon;timestamp;P1;durP1;ratioP1;P2;durP2;ratioP2
73158;SDS011;61370;48.594;10.202;2022-07-29T00:01:00;12.77;;;7.30;;
73158;SDS011;61370;48.594;10.202;2022-07-29T00:03:27;9.88;;;7.03;;
73158;SDS011;61370;48.594;10.202;2022-07-29T00:05:53;10.23;;;6.75;;
73158;SDS011;61370;48.594;10.202;2022-07-29T00:08:20;8.43;;;6.05;;
73158;SDS011;61370;48.594;10.202;2022-07-29T00:10:46;10.52;;;7.10;;
73158;SDS011;61370;48.594;10.202;2022-07-29T00:13:12;11.02;;;7.45;;
73158;SDS011;61370;48.594;10.202;2022-07-29T00:15:39;9.30;;;6.95;;
73158;SDS011;61370;48.594;10.202;2022-07-29T00:18:06;10.68;;;7.20;;
73158;SDS011;61370;48.594;10.202;2022-07-29T00:20:32;10.23;;;7.10;;
73158;SDS011;61370;48.594;10.202;2022-07-29T00:22:59;9.85;;;6.68;;
73158;SDS011;61370;48.594;10.202;2022-07-29T00:25:25;10.00;;;7.55;;
73158;SDS011;61370;48.594;10.202;2022-07-29T00:27:51;8.35;;;6.68;;
73158;SDS011;61370;48.594;10.202;2022-07-29T00:30:18;10.25;;;6.50;;
73158;SDS011;61370;48.594;10.202;2022-07-29T00:32:44;11.20;;;7.07;;
73158;SDS011;61370;48.594;10.202;2022-07-29T00:35:11;11.32;;;7.50;;
73158;SDS011;61370;48.594;10.202;2022-07-29T00:37:56;8.75;;;6.70;;
73158;SDS011;61370;48.594;10.202;2022-07-29T00:40:22;8.25;;;6.45;;
73158;SDS011;61370;48.594;10.202;2022-07-29T00:42:49;6.43;;;5.65;;
73158;SDS011;61370;48.594;10.202;2022-07-29T00:45:17;9.15;;;6.60;;
73158;SDS011;61370;48.594;10.202;2022-07-29T00:47:43;9.05;;;6.85;;
73158;SDS011;61370;48.594;10.202;2022-07-29T00:50:10;8.35;;;6.00;;
73158;SDS011;61370;48.594;10.202;2022-07-29T00:52:38;9.05;;;6.32;;
73158;SDS011;61370;48.594;10.202;2022-07-29T00:55:07;7.88;;;6.63;;
73158;SDS011;61370;48.594;10.202;2022-07-29T00:57:38;7.20;;;5.57;;
73158;SDS011;61370;48.594;10.202;2022-07-29T01:00:05;7.10;;;5.68;;
73158;SDS011;61370;48.594;10.202;2022-07-29T01:02:33;7.43;;;5.80;;
73158;SDS011;61370;48.594;10.202;2022-07-29T01:05:00;7.88;;;6.18;;
73158;SDS011;61370;48.594;10.202;2022-07-29T01:07:28;7.88;;;6.13;;
73158;SDS011;61370;48.594;10.202;2022-07-29T01:09:55;7.30;;;5.97;;
73158;SDS011;61370;48.594;10.202;2022-07-29T01:12:23;7.97;;;6.10;;
73158;SDS011;61370;48.594;10.202;2022-07-29T01:14:51;8.55;;;5.63;;
73158;SDS011;61370;48.594;10.202;2022-07-29T01:23:12;7.00;;;5.55;;
73158;SDS011;61370;48.594;10.202;2022-07-29T01:28:49;6.95;;;4.90;;
73158;SDS011;61370;48.594;10.202;2022-07-29T01:31:30;8.23;;;6.38;;
73158;SDS011;61370;48.594;10.202;2022-07-29T01:34:01;9.40;;;6.55;;
73158;SDS011;61370;48.594;10.202;2022-07-29T01:36:31;9.75;;;6.80;;
73158;SDS011;61370;48.594;10.202;2022-07-29T01:39:34;10.15;;;7.20;;
73158;SDS011;61370;48.594;10.202;2022-07-29T01:42:01;10.23;;;7.65;;
73158;SDS011;61370;48.594;10.202;2022-07-29T01:44:35;10.20;;;7.85;;
73158;SDS011;61370;48.594;10.202;2022-07-29T01:47:10;11.65;;;8.55;;
73158;SDS011;61370;48.594;10.202;2022-07-29T01:49:41;12.32;;;8.40;;
73158;SDS011;61370;48.594;10.202;2022-07-29T01:52:11;11.52;;;9.05;;
73158;SDS011;61370;48.594;10.202;2022-07-29T01:55:03;11.50;;;8.68;;
73158;SDS011;61370;48.594;10.202;2022-07-29T01:57:33;15.98;;;10.75;;
73158;SDS011;61370;48.594;10.202;2022-07-29T02:00:03;14.00;;;10.30;;
73158;SDS011;61370;48.594;10.202;2022-07-29T02:02:39;12.43;;;11.10;;
73158;SDS011;61370;48.594;10.202;2022-07-29T02:05:07;14.02;;;11.57;;
73158;SDS011;61370;48.594;10.202;2022-07-29T02:07:34;13.52;;;10.98;;
73158;SDS011;61370;48.594;10.202;2022-07-29T02:10:03;15.82;;;11.93;;
73158;SDS011;61370;48.594;10.202;2022-07-29T02:12:31;14.20;;;11.70;;
73158;SDS011;61370;48.594;10.202;2022-07-29T02:14:59;15.25;;;11.55;;
73158;SDS011;61370;48.594;10.202;2022-07-29T02:17:29;14.65;;;10.38;;
73158;SDS011;61370;48.594;10.202;2022-07-29T02:20:00;16.40;;;10.43;;
73158;SDS011;61370;48.594;10.202;2022-07-29T02:22:29;13.43;;;10.63;;
73158;SDS011;61370;48.594;10.202;2022-07-29T02:24:57;14.43;;;11.13;;
73158;SDS011;61370;48.594;10.202;2022-07-29T02:27:24;14.50;;;11.05;;
73158;SDS011;61370;48.594;10.202;2022-07-29T02:29:53;13.30;;;10.60;;
73158;SDS011;61370;48.594;10.202;2022-07-29T02:32:20;16.42;;;10.50;;
73158;SDS011;61370;48.594;10.202;2022-07-29T02:34:47;12.32;;;10.15;;
73158;SDS011;61370;48.594;10.202;2022-07-29T02:37:15;13.90;;;11.30;;
73158;SDS011;61370;48.594;10.202;2022-07-29T02:39:43;14.20;;;10.43;;
73158;SDS011;61370;48.594;10.202;2022-07-29T02:42:11;16.23;;;11.85;;
73158;SDS011;61370;48.594;10.202;2022-07-29T02:50:04;14.15;;;10.75;;
73158;SDS011;61370;48.594;10.202;2022-07-29T02:52:35;14.45;;;11.65;;
73158;SDS011;61370;48.594;10.202;2022-07-29T03:00:25;13.95;;;10.15;;
73158;SDS011;61370;48.594;10.202;2022-07-29T03:02:55;14.85;;;11.10;;
73158;SDS011;61370;48.594;10.202;2022-07-29T03:05:23;16.40;;;10.63;;
73158;SDS011;61370;48.594;10.202;2022-07-29T03:07:51;14.90;;;11.05;;
73158;SDS011;61370;48.594;10.202;2022-07-29T03:10:21;14.57;;;11.48;;
73158;SDS011;61370;48.594;10.202;2022-07-29T03:12:48;15.05;;;11.63;;
73158;SDS011;61370;48.594;10.202;2022-07-29T03:15:14;16.40;;;13.07;;
73158;SDS011;61370;48.594;10.202;2022-07-29T03:17:41;16.40;;;13.57;;
73158;SDS011;61370;48.594;10.202;2022-07-29T03:20:09;15.48;;;11.57;;
73158;SDS011;61370;48.594;10.202;2022-07-29T03:22:39;19.58;;;13.00;;
73158;SDS011;61370;48.594;10.202;2022-07-29T03:25:10;16.55;;;12.30;;
73158;SDS011;61370;48.594;10.202;2022-07-29T03:27:37;16.30;;;12.38;;
73158;SDS011;61370;48.594;10.202;2022-07-29T03:30:04;15.98;;;12.18;;
73158;SDS011;61370;48.594;10.202;2022-07-29T03:32:31;16.92;;;12.93;;
73158;SDS011;61370;48.594;10.202;2022-07-29T03:34:58;14.77;;;11.93;;
73158;SDS011;61370;48.594;10.202;2022-07-29T03:37:25;15.93;;;11.93;;
73158;SDS011;61370;48.594;10.202;2022-07-29T03:39:52;19.08;;;12.55;;
73158;SDS011;61370;48.594;10.202;2022-07-29T03:42:20;17.05;;;13.35;;
73158;SDS011;61370;48.594;10.202;2022-07-29T03:44:49;19.52;;;14.70;;
73158;SDS011;61370;48.594;10.202;2022-07-29T03:47:17;22.90;;;13.05;;
73158;SDS011;61370;48.594;10.202;2022-07-29T03:49:46;17.55;;;12.32;;
73158;SDS011;61370;48.594;10.202;2022-07-29T03:52:14;16.02;;;12.73;;
73158;SDS011;61370;48.594;10.202;2022-07-29T03:54:41;15.18;;;12.73;;
73158;SDS011;61370;48.594;10.202;2022-07-29T03:57:08;17.17;;;13.02;;
73158;SDS011;61370;48.594;10.202;2022-07-29T03:59:37;18.05;;;12.73;;
73158;SDS011;61370;48.594;10.202;2022-07-29T04:02:04;17.33;;;13.23;;
73158;SDS011;61370;48.594;10.202;2022-07-29T04:04:32;20.30;;;15.32;;
73158;SDS011;61370;48.594;10.202;2022-07-29T04:07:00;19.38;;;14.75;;
73158;SDS011;61370;48.594;10.202;2022-07-29T04:09:26;17.10;;;13.95;;
73158;SDS011;61370;48.594;10.202;2022-07-29T04:11:53;20.88;;;14.38;;
73158;SDS011;61370;48.594;10.202;2022-07-29T04:14:19;19.80;;;14.18;;
73158;SDS011;61370;48.594;10.202;2022-07-29T04:16:46;19.15;;;13.75;;
73158;SDS011;61370;48.594;10.202;2022-07-29T04:19:13;21.00;;;14.60;;
73158;SDS011;61370;48.594;10.202;2022-07-29T04:21:40;18.92;;;14.35;;
73158;SDS011;61370;48.594;10.202;2022-07-29T04:24:07;18.95;;;15.02;;
73158;SDS011;61370;48.594;10.202;2022-07-29T04:26:34;17.58;;;13.90;;
73158;SDS011;61370;48.594;10.202;2022-07-29T04:29:00;17.73;;;14.02;;
73158;SDS011;61370;48.594;10.202;2022-07-29T04:31:27;16.15;;;13.00;;
73158;SDS011;61370;48.594;10.202;2022-07-29T04:33:53;16.30;;;12.85;;
73158;SDS011;61370;48.594;10.202;2022-07-29T04:36:20;18.58;;;12.77;;
73158;SDS011;61370;48.594;10.202;2022-07-29T04:38:47;14.95;;;12.27;;
73158;SDS011;61370;48.594;10.202;2022-07-29T04:41:13;15.52;;;11.77;;
73158;SDS011;61370;48.594;10.202;2022-07-29T04:43:40;14.38;;;11.10;;
73158;SDS011;61370;48.594;10.202;2022-07-29T04:46:06;16.73;;;11.57;;
73158;SDS011;61370;48.594;10.202;2022-07-29T04:48:33;17.23;;;11.57;;
73158;SDS011;61370;48.594;10.202;2022-07-29T04:50:59;15.48;;;11.60;;
73158;SDS011;61370;48.594;10.202;2022-07-29T04:53:26;13.70;;;10.88;;
73158;SDS011;61370;48.594;10.202;2022-07-29T04:55:55;14.13;;;9.60;;
73158;SDS011;61370;48.594;10.202;2022-07-29T04:58:21;13.32;;;10.90;;
73158;SDS011;61370;48.594;10.202;2022-07-29T05:00:50;30.85;;;10.77;;
73158;SDS011;61370;48.594;10.202;2022-07-29T05:03:17;86.03;;;11.52;;
73158;SDS011;61370;48.594;10.202;2022-07-29T05:05:43;29.52;;;10.30;;
73158;SDS011;61370;48.594;10.202;2022-07-29T05:11:53;27.13;;;9.35;;
73158;SDS011;61370;48.594;10.202;2022-07-29T05:14:20;24.92;;;8.75;;
73158;SDS011;61370;48.594;10.202;2022-07-29T05:16:46;27.98;;;11.15;;
73158;SDS011;61370;48.594;10.202;2022-07-29T05:19:12;15.48;;;11.05;;
73158;SDS011;61370;48.594;10.202;2022-07-29T05:21:39;21.50;;;11.05;;
73158;SDS011;61370;48.594;10.202;2022-07-29T05:24:05;52.50;;;11.60;;
73158;SDS011;61370;48.594;10.202;2022-07-29T05:26:32;46.80;;;13.27;;
73158;SDS011;61370;48.594;10.202;2022-07-29T05:28:58;45.75;;;15.40;;
73158;SDS011;61370;48.594;10.202;2022-07-29T05:31:25;60.08;;;15.52;;
73158;SDS011;61370;48.594;10.202;2022-07-29T05:33:51;60.05;;;16.98;;
73158;SDS011;61370;48.594;10.202;2022-07-29T05:36:18;72.97;;;18.65;;
73158;SDS011;61370;48.594;10.202;2022-07-29T05:38:44;57.92;;;17.55;;
73158;SDS011;61370;48.594;10.202;2022-07-29T05:41:10;73.82;;;19.00;;
73158;SDS011;61370;48.594;10.202;2022-07-29T05:43:37;30.95;;;18.17;;
73158;SDS011;61370;48.594;10.202;2022-07-29T05:46:04;33.90;;;18.83;;
73158;SDS011;61370;48.594;10.202;2022-07-29T05:48:30;54.55;;;17.48;;
73158;SDS011;61370;48.594;10.202;2022-07-29T05:50:57;44.42;;;18.20;;
73158;SDS011;61370;48.594;10.202;2022-07-29T05:53:23;30.60;;;17.55;;
73158;SDS011;61370;48.594;10.202;2022-07-29T05:55:49;34.58;;;17.92;;
73158;SDS011;61370;48.594;10.202;2022-07-29T05:58:16;25.42;;;18.23;;
73158;SDS011;61370;48.594;10.202;2022-07-29T06:00:43;24.27;;;17.08;;
73158;SDS011;61370;48.594;10.202;2022-07-29T06:03:09;23.40;;;16.77;;
73158;SDS011;61370;48.594;10.202;2022-07-29T06:05:36;26.80;;;18.83;;
73158;SDS011;61370;48.594;10.202;2022-07-29T06:08:02;23.92;;;16.80;;
73158;SDS011;61370;48.594;10.202;2022-07-29T06:10:31;20.67;;;16.67;;
73158;SDS011;61370;48.594;10.202;2022-07-29T06:12:58;21.58;;;15.93;;
73158;SDS011;61370;48.594;10.202;2022-07-29T06:15:24;22.45;;;16.52;;
73158;SDS011;61370;48.594;10.202;2022-07-29T06:17:51;20.42;;;15.10;;
73158;SDS011;61370;48.594;10.202;2022-07-29T06:20:18;20.17;;;15.27;;
73158;SDS011;61370;48.594;10.202;2022-07-29T06:22:45;19.92;;;15.77;;
73158;SDS011;61370;48.594;10.202;2022-07-29T06:25:11;21.33;;;15.88;;
73158;SDS011;61370;48.594;10.202;2022-07-29T06:27:38;20.58;;;15.23;;
73158;SDS011;61370;48.594;10.202;2022-07-29T06:30:04;21.27;;;15.93;;
73158;SDS011;61370;48.594;10.202;2022-07-29T06:32:33;21.40;;;14.82;;
73158;SDS011;61370;48.594;10.202;2022-07-29T06:35:00;19.88;;;15.25;;
73158;SDS011;61370;48.594;10.202;2022-07-29T06:37:26;21.25;;;15.52;;
73158;SDS011;61370;48.594;10.202;2022-07-29T06:39:53;18.40;;;15.25;;
73158;SDS011;61370;48.594;10.202;2022-07-29T06:45:09;19.63;;;14.40;;
73158;SDS011;61370;48.594;10.202;2022-07-29T06:47:37;19.20;;;14.48;;
73158;SDS011;61370;48.594;10.202;2022-07-29T06:50:04;18.88;;;14.40;;
73158;SDS011;61370;48.594;10.202;2022-07-29T06:52:31;20.27;;;15.25;;
73158;SDS011;61370;48.594;10.202;2022-07-29T06:54:57;18.23;;;14.48;;
73158;SDS011;61370;48.594;10.202;2022-07-29T06:57:24;17.48;;;13.27;;
73158;SDS011;61370;48.594;10.202;2022-07-29T06:59:50;16.35;;;13.55;;
73158;SDS011;61370;48.594;10.202;2022-07-29T07:02:17;18.08;;;15.00;;
73158;SDS011;61370;48.594;10.202;2022-07-29T07:04:43;17.60;;;13.80;;
73158;SDS011;61370;48.594;10.202;2022-07-29T07:07:10;16.08;;;11.48;;
73158;SDS011;61370;48.594;10.202;2022-07-29T07:09:36;16.30;;;13.43;;
73158;SDS011;61370;48.594;10.202;2022-07-29T07:12:02;16.42;;;13.82;;
73158;SDS011;61370;48.594;10.202;2022-07-29T07:14:29;15.50;;;11.63;;
73158;SDS011;61370;48.594;10.202;2022-07-29T07:16:55;13.68;;;11.48;;
73158;SDS011;61370;48.594;10.202;2022-07-29T07:19:22;12.57;;;9.23;;
73158;SDS011;61370;48.594;10.202;2022-07-29T07:21:49;10.43;;;8.70;;
73158;SDS011;61370;48.594;10.202;2022-07-29T07:24:15;13.40;;;10.05;;
73158;SDS011;61370;48.594;10.202;2022-07-29T07:26:42;10.88;;;8.63;;
73158;SDS011;61370;48.594;10.202;2022-07-29T07:29:08;11.40;;;8.13;;
73158;SDS011;61370;48.594;10.202;2022-07-29T07:31:35;9.30;;;8.13;;
73158;SDS011;61370;48.594;10.202;2022-07-29T07:34:02;9.05;;;7.10;;
73158;SDS011;61370;48.594;10.202;2022-07-29T07:36:29;13.10;;;7.82;;
73158;SDS011;61370;48.594;10.202;2022-07-29T07:38:55;8.43;;;7.15;;
73158;SDS011;61370;48.594;10.202;2022-07-29T07:41:22;10.00;;;7.25;;
73158;SDS011;61370;48.594;10.202;2022-07-29T07:43:48;9.88;;;7.22;;
73158;SDS011;61370;48.594;10.202;2022-07-29T07:46:15;8.50;;;6.80;;
73158;SDS011;61370;48.594;10.202;2022-07-29T07:48:41;9.48;;;7.07;;
73158;SDS011;61370;48.594;10.202;2022-07-29T07:51:08;8.82;;;7.50;;
73158;SDS011;61370;48.594;10.202;2022-07-29T07:53:34;10.15;;;7.18;;
73158;SDS011;61370;48.594;10.202;2022-07-29T07:56:01;9.02;;;7.18;;
73158;SDS011;61370;48.594;10.202;2022-07-29T07:58:28;9.35;;;7.70;;
73158;SDS011;61370;48.594;10.202;2022-07-29T08:00:55;9.20;;;6.43;;
73158;SDS011;61370;48.594;10.202;2022-07-29T08:03:21;7.38;;;6.32;;
73158;SDS011;61370;48.594;10.202;2022-07-29T08:05:48;9.80;;;7.30;;
73158;SDS011;61370;48.594;10.202;2022-07-29T08:08:16;7.55;;;5.97;;
73158;SDS011;61370;48.594;10.202;2022-07-29T08:10:43;7.45;;;6.75;;
73158;SDS011;61370;48.594;10.202;2022-07-29T08:13:19;10.63;;;7.15;;
73158;SDS011;61370;48.594;10.202;2022-07-29T08:15:46;10.13;;;6.90;;
73158;SDS011;61370;48.594;10.202;2022-07-29T08:18:13;7.72;;;6.00;;
73158;SDS011;61370;48.594;10.202;2022-07-29T08:20:39;8.40;;;6.70;;
73158;SDS011;61370;48.594;10.202;2022-07-29T08:23:06;8.55;;;6.40;;
73158;SDS011;61370;48.594;10.202;2022-07-29T08:25:37;9.40;;;6.90;;
73158;SDS011;61370;48.594;10.202;2022-07-29T08:28:05;11.02;;;6.50;;
73158;SDS011;61370;48.594;10.202;2022-07-29T08:30:32;9.25;;;6.55;;
73158;SDS011;61370;48.594;10.202;2022-07-29T08:32:58;8.40;;;6.75;;
73158;SDS011;61370;48.594;10.202;2022-07-29T08:35:25;9.10;;;6.20;;
73158;SDS011;61370;48.594;10.202;2022-07-29T08:37:51;7.20;;;6.03;;
73158;SDS011;61370;48.594;10.202;2022-07-29T08:40:19;7.13;;;6.40;;
73158;SDS011;61370;48.594;10.202;2022-07-29T08:42:46;8.00;;;5.97;;
73158;SDS011;61370;48.594;10.202;2022-07-29T08:45:13;6.97;;;6.18;;
73158;SDS011;61370;48.594;10.202;2022-07-29T08:47:39;7.18;;;5.70;;
73158;SDS011;61370;48.594;10.202;2022-07-29T08:50:06;7.68;;;6.53;;
73158;SDS011;61370;48.594;10.202;2022-07-29T08:52:38;7.60;;;5.93;;
73158;SDS011;61370;48.594;10.202;2022-07-29T08:55:06;7.90;;;6.28;;
73158;SDS011;61370;48.594;10.202;2022-07-29T08:57:33;7.43;;;5.95;;
73158;SDS011;61370;48.594;10.202;2022-07-29T09:00:01;6.72;;;5.50;;
73158;SDS011;61370;48.594;10.202;2022-07-29T09:02:32;8.35;;;5.60;;
73158;SDS011;61370;48.594;10.202;2022-07-29T09:05:02;8.55;;;6.20;;
73158;SDS011;61370;48.594;10.202;2022-07-29T09:07:30;8.07;;;5.65;;
73158;SDS011;61370;48.594;10.202;2022-07-29T09:09:57;7.32;;;6.05;;
73158;SDS011;61370;48.594;10.202;2022-07-29T09:12:23;9.10;;;5.70;;
73158;SDS011;61370;48.594;10.202;2022-07-29T09:14:51;7.85;;;5.65;;
73158;SDS011;61370;48.594;10.202;2022-07-29T09:17:17;8.32;;;6.10;;
73158;SDS011;61370;48.594;10.202;2022-07-29T09:19:45;7.20;;;5.65;;
73158;SDS011;61370;48.594;10.202;2022-07-29T09:22:12;8.23;;;5.97;;
73158;SDS011;61370;48.594;10.202;2022-07-29T09:24:56;7.65;;;5.45;;
73158;SDS011;61370;48.594;10.202;2022-07-29T09:29:59;6.20;;;5.30;;
73158;SDS011;61370;48.594;10.202;2022-07-29T09:32:27;7.65;;;5.60;;
73158;SDS011;61370;48.594;10.202;2022-07-29T09:35:13;7.75;;;5.63;;
73158;SDS011;61370;48.594;10.202;2022-07-29T09:37:41;8.63;;;6.10;;
73158;SDS011;61370;48.594;10.202;2022-07-29T09:40:11;6.47;;;5.50;;
73158;SDS011;61370;48.594;10.202;2022-07-29T09:42:38;7.80;;;5.82;;
73158;SDS011;61370;48.594;10.202;2022-07-29T09:45:05;7.93;;;6.45;;
73158;SDS011;61370;48.594;10.202;2022-07-29T09:47:45;7.13;;;6.07;;
73158;SDS011;61370;48.594;10.202;2022-07-29T09:50:13;9.75;;;6.43;;
73158;SDS011;61370;48.594;10.202;2022-07-29T09:52:50;8.82;;;6.28;;
73158;SDS011;61370;48.594;10.202;2022-07-29T09:55:17;8.88;;;6.38;;
73158;SDS011;61370;48.594;10.202;2022-07-29T09:57:45;8.32;;;5.93;;
73158;SDS011;61370;48.594;10.202;2022-07-29T10:00:13;7.18;;;6.20;;
73158;SDS011;61370;48.594;10.202;2022-07-29T10:02:42;8.98;;;6.80;;
73158;SDS011;61370;48.594;10.202;2022-07-29T10:05:17;8.63;;;6.43;;
73158;SDS011;61370;48.594;10.202;2022-07-29T10:07:49;7.47;;;6.00;;
73158;SDS011;61370;48.594;10.202;2022-07-29T10:12:49;7.65;;;5.53;;
73158;SDS011;61370;48.594;10.202;2022-07-29T10:15:17;7.97;;;6.20;;
73158;SDS011;61370;48.594;10.202;2022-07-29T10:17:44;8.73;;;5.60;;
73158;SDS011;61370;48.594;10.202;2022-07-29T10:20:11;10.45;;;6.53;;
73158;SDS011;61370;48.594;10.202;2022-07-29T10:22:37;6.47;;;5.47;;
73158;SDS011;61370;48.594;10.202;2022-07-29T10:25:04;10.50;;;6.32;;
73158;SDS011;61370;48.594;10.202;2022-07-29T10:27:31;8.63;;;5.53;;
73158;SDS011;61370;48.594;10.202;2022-07-29T10:29:57;10.18;;;5.53;;
73158;SDS011;61370;48.594;10.202;2022-07-29T10:41:18;9.13;;;6.57;;
73158;SDS011;61370;48.594;10.202;2022-07-29T10:46:43;7.82;;;4.90;;
73158;SDS011;61370;48.594;10.202;2022-07-29T10:59:42;7.85;;;5.13;;
73158;SDS011;61370;48.594;10.202;2022-07-29T11:07:25;5.53;;;4.45;;
73158;SDS011;61370;48.594;10.202;2022-07-29T11:15:12;9.10;;;5.13;;
73158;SDS011;61370;48.594;10.202;2022-07-29T11:23:17;10.27;;;6.28;;
73158;SDS011;61370;48.594;10.202;2022-07-29T11:31:41;7.55;;;3.88;;
73158;SDS011;61370;48.594;10.202;2022-07-29T11:39:36;6.72;;;3.67;;
73158;SDS011;61370;48.594;10.202;2022-07-29T11:47:21;9.18;;;4.47;;
73158;SDS011;61370;48.594;10.202;2022-07-29T11:49:48;5.72;;;3.78;;
73158;SDS011;61370;48.594;10.202;2022-07-29T11:52:16;10.10;;;5.03;;
73158;SDS011;61370;48.594;10.202;2022-07-29T11:54:43;7.60;;;4.97;;
73158;SDS011;61370;48.594;10.202;2022-07-29T11:57:10;7.15;;;4.70;;
73158;SDS011;61370;48.594;10.202;2022-07-29T11:59:40;5.22;;;3.85;;
73158;SDS011;61370;48.594;10.202;2022-07-29T12:02:10;7.97;;;4.85;;
73158;SDS011;61370;48.594;10.202;2022-07-29T12:07:17;6.45;;;3.65;;
73158;SDS011;61370;48.594;10.202;2022-07-29T12:09:53;6.45;;;3.90;;
73158;SDS011;61370;48.594;10.202;2022-07-29T12:12:20;6.00;;;3.90;;
73158;SDS011;61370;48.594;10.202;2022-07-29T12:14:48;7.85;;;3.97;;
73158;SDS011;61370;48.594;10.202;2022-07-29T12:21:54;9.57;;;4.47;;
73158;SDS011;61370;48.594;10.202;2022-07-29T12:24:21;8.02;;;4.18;;
73158;SDS011;61370;48.594;10.202;2022-07-29T12:29:28;4.25;;;2.78;;
73158;SDS011;61370;48.594;10.202;2022-07-29T12:31:58;4.10;;;2.10;;
73158;SDS011;61370;48.594;10.202;2022-07-29T12:34:26;5.10;;;2.90;;
73158;SDS011;61370;48.594;10.202;2022-07-29T12:36:55;5.07;;;2.72;;
73158;SDS011;61370;48.594;10.202;2022-07-29T12:39:32;6.20;;;3.17;;
73158;SDS011;61370;48.594;10.202;2022-07-29T12:42:13;2.42;;;1.48;;
73158;SDS011;61370;48.594;10.202;2022-07-29T12:44:47;3.33;;;1.42;;
73158;SDS011;61370;48.594;10.202;2022-07-29T12:47:18;2.95;;;1.42;;
73158;SDS011;61370;48.594;10.202;2022-07-29T12:50:07;3.20;;;1.67;;
73158;SDS011;61370;48.594;10.202;2022-07-29T12:52:50;3.38;;;1.50;;
73158;SDS011;61370;48.594;10.202;2022-07-29T13:01:16;5.20;;;1.98;;
73158;SDS011;61370;48.594;10.202;2022-07-29T13:03:55;5.30;;;2.10;;
73158;SDS011;61370;48.594;10.202;2022-07-29T13:06:35;4.07;;;2.45;;
73158;SDS011;61370;48.594;10.202;2022-07-29T13:09:09;5.85;;;2.30;;
73158;SDS011;61370;48.594;10.202;2022-07-29T13:11:38;3.80;;;2.40;;
73158;SDS011;61370;48.594;10.202;2022-07-29T13:14:07;3.67;;;2.25;;
73158;SDS011;61370;48.594;10.202;2022-07-29T13:16:35;4.70;;;2.63;;
73158;SDS011;61370;48.594;10.202;2022-07-29T13:19:07;5.28;;;3.00;;
73158;SDS011;61370;48.594;10.202;2022-07-29T13:21:36;4.70;;;3.20;;
73158;SDS011;61370;48.594;10.202;2022-07-29T13:24:04;6.38;;;3.28;;
73158;SDS011;61370;48.594;10.202;2022-07-29T13:26:32;5.85;;;3.10;;
73158;SDS011;61370;48.594;10.202;2022-07-29T13:28:59;5.10;;;2.80;;
73158;SDS011;61370;48.594;10.202;2022-07-29T13:31:26;4.22;;;2.40;;
73158;SDS011;61370;48.594;10.202;2022-07-29T13:33:52;4.82;;;2.60;;
73158;SDS011;61370;48.594;10.202;2022-07-29T13:36:19;5.07;;;2.60;;
73158;SDS011;61370;48.594;10.202;2022-07-29T13:38:46;4.07;;;2.67;;
73158;SDS011;61370;48.594;10.202;2022-07-29T13:41:13;4.45;;;3.13;;
73158;SDS011;61370;48.594;10.202;2022-07-29T13:43:39;6.18;;;3.33;;
73158;SDS011;61370;48.594;10.202;2022-07-29T13:46:06;5.45;;;3.30;;
73158;SDS011;61370;48.594;10.202;2022-07-29T13:48:32;5.10;;;3.35;;
73158;SDS011;61370;48.594;10.202;2022-07-29T13:50:59;4.90;;;3.15;;
73158;SDS011;61370;48.594;10.202;2022-07-29T13:53:26;8.57;;;3.50;;
73158;SDS011;61370;48.594;10.202;2022-07-29T13:55:54;4.85;;;3.20;;
73158;SDS011;61370;48.594;10.202;2022-07-29T13:58:21;5.25;;;3.78;;
73158;SDS011;61370;48.594;10.202;2022-07-29T14:00:47;5.18;;;3.67;;
73158;SDS011;61370;48.594;10.202;2022-07-29T14:03:14;6.15;;;4.00;;
73158;SDS011;61370;48.594;10.202;2022-07-29T14:05:40;6.18;;;4.47;;
73158;SDS011;61370;48.594;10.202;2022-07-29T14:08:07;6.32;;;4.63;;
73158;SDS011;61370;48.594;10.202;2022-07-29T14:10:33;7.53;;;5.00;;
73158;SDS011;61370;48.594;10.202;2022-07-29T14:13:00;6.53;;;4.50;;
73158;SDS011;61370;48.594;10.202;2022-07-29T14:15:26;6.80;;;4.85;;
73158;SDS011;61370;48.594;10.202;2022-07-29T14:17:53;7.03;;;5.30;;
73158;SDS011;61370;48.594;10.202;2022-07-29T14:20:19;8.15;;;5.53;;
73158;SDS011;61370;48.594;10.202;2022-07-29T14:22:46;6.63;;;5.55;;
73158;SDS011;61370;48.594;10.202;2022-07-29T14:25:13;6.85;;;5.45;;
73158;SDS011;61370;48.594;10.202;2022-07-29T14:27:39;6.78;;;5.50;;
73158;SDS011;61370;48.594;10.202;2022-07-29T14:30:06;7.78;;;6.85;;
73158;SDS011;61370;48.594;10.202;2022-07-29T14:32:33;7.35;;;6.07;;
73158;SDS011;61370;48.594;10.202;2022-07-29T14:34:59;7.22;;;5.78;;
73158;SDS011;61370;48.594;10.202;2022-07-29T14:37:26;6.88;;;5.95;;
73158;SDS011;61370;48.594;10.202;2022-07-29T14:39:52;6.32;;;5.60;;
73158;SDS011;61370;48.594;10.202;2022-07-29T14:42:20;7.28;;;5.70;;
73158;SDS011;61370;48.594;10.202;2022-07-29T14:44:47;6.93;;;5.65;;
73158;SDS011;61370;48.594;10.202;2022-07-29T14:47:13;7.13;;;5.60;;
73158;SDS011;61370;48.594;10.202;2022-07-29T14:49:40;7.50;;;5.97;;
73158;SDS011;61370;48.594;10.202;2022-07-29T14:52:06;7.28;;;5.40;;
73158;SDS011;61370;48.594;10.202;2022-07-29T14:57:25;6.88;;;5.63;;
73158;SDS011;61370;48.594;10.202;2022-07-29T14:59:52;9.40;;;5.22;;
73158;SDS011;61370;48.594;10.202;2022-07-29T15:02:18;6.45;;;4.65;;
73158;SDS011;61370;48.594;10.202;2022-07-29T15:04:45;6.03;;;4.40;;
73158;SDS011;61370;48.594;10.202;2022-07-29T15:07:12;6.32;;;4.65;;
73158;SDS011;61370;48.594;10.202;2022-07-29T15:09:38;7.53;;;5.22;;
73158;SDS011;61370;48.594;10.202;2022-07-29T15:12:06;6.90;;;4.78;;
73158;SDS011;61370;48.594;10.202;2022-07-29T15:14:33;10.05;;;5.32;;
73158;SDS011;61370;48.594;10.202;2022-07-29T15:16:59;8.55;;;4.75;;
73158;SDS011;61370;48.594;10.202;2022-07-29T15:19:26;6.35;;;4.53;;
73158;SDS011;61370;48.594;10.202;2022-07-29T15:21:52;8.48;;;4.95;;
73158;SDS011;61370;48.594;10.202;2022-07-29T15:24:19;5.97;;;4.65;;
73158;SDS011;61370;48.594;10.202;2022-07-29T15:26:46;6.25;;;4.85;;
73158;SDS011;61370;48.594;10.202;2022-07-29T15:29:13;5.93;;;4.43;;
73158;SDS011;61370;48.594;10.202;2022-07-29T15:31:39;7.45;;;4.97;;
73158;SDS011;61370;48.594;10.202;2022-07-29T15:34:06;7.70;;;4.55;;
73158;SDS011;61370;48.594;10.202;2022-07-29T15:36:32;6.15;;;4.20;;
73158;SDS011;61370;48.594;10.202;2022-07-29T15:38:59;5.32;;;4.00;;
73158;SDS011;61370;48.594;10.202;2022-07-29T15:41:25;6.72;;;4.00;;
73158;SDS011;61370;48.594;10.202;2022-07-29T15:43:52;5.50;;;4.32;;
73158;SDS011;61370;48.594;10.202;2022-07-29T15:46:19;5.43;;;3.85;;
73158;SDS011;61370;48.594;10.202;2022-07-29T15:49:05;6.18;;;3.50;;
73158;SDS011;61370;48.594;10.202;2022-07-29T15:51:32;5.63;;;3.63;;
73158;SDS011;61370;48.594;10.202;2022-07-29T15:54:00;5.88;;;3.63;;
73158;SDS011;61370;48.594;10.202;2022-07-29T15:56:29;5.75;;;3.40;;
73158;SDS011;61370;48.594;10.202;2022-07-29T15:58:56;4.47;;;3.20;;
73158;SDS011;61370;48.594;10.202;2022-07-29T16:01:22;6.88;;;3.97;;
73158;SDS011;61370;48.594;10.202;2022-07-29T16:03:50;5.30;;;3.80;;
73158;SDS011;61370;48.594;10.202;2022-07-29T16:06:16;8.45;;;4.30;;
73158;SDS011;61370;48.594;10.202;2022-07-29T16:08:45;5.25;;;4.10;;
73158;SDS011;61370;48.594;10.202;2022-07-29T16:13:41;8.07;;;4.18;;
73158;SDS011;61370;48.594;10.202;2022-07-29T16:16:08;4.57;;;3.35;;